Time,TemperatureF,DewpointF,PressureIn,WindDirection,WindDirectionDegrees,WindSpeedMPH,WindSpeedGustMPH,Humidity,HourlyPrecipIn,Conditions,Clouds,dailyrainin,SolarRadiationWatts/m^2,SoftwareType,DateUTC
2013-03-29 00:12:00,45.0,40.0,-100.00,ESE,114,5.0,6.0,84,-99.99,,,-99.99,0.000000,,2013-03-29 10:12:00,
2013-03-29 00:22:00,45.0,40.0,-100.00,ESE,114,5.0,6.0,84,-99.99,,,-99.99,0.000000,,2013-03-29 10:22:00,
2013-03-29 00:33:00,45.0,40.0,-100.00,ESE,114,5.0,6.0,84,-99.99,,,-99.99,0.000000,,2013-03-29 10:33:00,
2013-03-29 00:42:00,45.0,40.0,-100.00,ESE,114,5.0,6.0,84,-99.99,,,-99.99,0.000000,,2013-03-29 10:42:00,
2013-03-29 01:12:00,46.0,42.0,-100.00,ESE,103,4.0,6.0,85,0.00,,,-99.99,0.000000,,2013-03-29 11:12:00,
2013-03-29 01:23:00,46.0,42.0,-100.00,ESE,103,4.0,6.0,85,0.00,,,-99.99,0.000000,,2013-03-29 11:23:00,
2013-03-29 01:32:00,46.0,42.0,-100.00,ESE,103,4.0,6.0,85,0.00,,,-99.99,0.000000,,2013-03-29 11:32:00,
2013-03-29 01:42:00,46.0,42.0,-100.00,ESE,103,4.0,6.0,85,0.00,,,-99.99,0.000000,,2013-03-29 11:42:00,
2013-03-29 02:12:00,46.0,39.0,-100.00,ENE,73,6.0,7.0,75,0.00,,,-99.99,0.000000,,2013-03-29 12:12:00,
2013-03-29 02:22:00,46.0,39.0,-100.00,ENE,73,6.0,7.0,75,0.00,,,-99.99,0.000000,,2013-03-29 12:22:00,
2013-03-29 02:32:00,46.0,39.0,-100.00,ENE,73,6.0,7.0,75,0.00,,,-99.99,0.000000,,2013-03-29 12:32:00,
2013-03-29 02:42:00,46.0,39.0,-100.00,ENE,73,6.0,7.0,75,0.00,,,-99.99,0.000000,,2013-03-29 12:42:00,
2013-03-29 03:12:00,45.0,33.0,-100.00,East,83,4.0,8.0,63,0.00,,,-99.99,0.000000,,2013-03-29 13:12:00,
2013-03-29 03:22:00,45.0,33.0,-100.00,East,83,4.0,8.0,63,0.00,,,-99.99,0.000000,,2013-03-29 13:22:00,
2013-03-29 03:32:00,45.0,33.0,-100.00,East,83,4.0,8.0,63,0.00,,,-99.99,0.000000,,2013-03-29 13:32:00,
2013-03-29 03:42:00,45.0,33.0,-100.00,East,83,4.0,8.0,63,0.00,,,-99.99,0.000000,,2013-03-29 13:42:00,
2013-03-29 04:12:00,45.0,32.0,-100.00,East,83,4.0,7.0,59,0.00,,,-99.99,0.000000,,2013-03-29 14:12:00,
2013-03-29 04:22:00,45.0,32.0,-100.00,East,83,4.0,7.0,59,0.00,,,-99.99,0.000000,,2013-03-29 14:22:00,
2013-03-29 04:32:00,45.0,32.0,-100.00,East,83,4.0,7.0,59,0.00,,,-99.99,0.000000,,2013-03-29 14:32:00,
2013-03-29 04:42:00,45.0,32.0,-100.00,East,83,4.0,7.0,59,0.00,,,-99.99,0.000000,,2013-03-29 14:42:00,
2013-03-29 05:12:00,45.0,32.0,-100.00,East,80,0.0,7.0,59,0.00,,,-99.99,0.000000,,2013-03-29 15:12:00,
2013-03-29 05:22:00,45.0,32.0,-100.00,East,80,0.0,7.0,59,0.00,,,-99.99,0.000000,,2013-03-29 15:22:00,
2013-03-29 05:33:00,45.0,32.0,-100.00,East,80,0.0,7.0,59,0.00,,,-99.99,0.000000,,2013-03-29 15:33:00,
2013-03-29 05:42:00,45.0,32.0,-100.00,East,80,0.0,7.0,59,0.00,,,-99.99,0.000000,,2013-03-29 15:42:00,
2013-03-29 06:12:00,47.0,35.0,-100.00,East,91,0.0,0.0,62,0.00,,,-99.99,0.000000,,2013-03-29 16:12:00,
2013-03-29 06:23:00,47.0,35.0,-100.00,East,91,0.0,0.0,62,0.00,,,-99.99,0.000000,,2013-03-29 16:23:00,
2013-03-29 06:32:00,47.0,35.0,-100.00,East,91,0.0,0.0,62,0.00,,,-99.99,0.000000,,2013-03-29 16:32:00,
2013-03-29 06:42:00,47.0,35.0,-100.00,East,91,0.0,0.0,62,0.00,,,-99.99,0.000000,,2013-03-29 16:42:00,
2013-03-29 07:12:00,45.0,37.0,-100.00,ESE,118,0.0,0.0,73,0.00,,,-99.99,5.000000,,2013-03-29 17:12:00,
2013-03-29 07:22:00,45.0,37.0,-100.00,ESE,118,0.0,0.0,73,0.00,,,-99.99,5.000000,,2013-03-29 17:22:00,
2013-03-29 07:33:00,45.0,37.0,-100.00,ESE,118,0.0,0.0,73,0.00,,,-99.99,5.000000,,2013-03-29 17:33:00,
2013-03-29 07:42:00,45.0,37.0,-100.00,ESE,118,0.0,0.0,73,0.00,,,-99.99,5.000000,,2013-03-29 17:42:00,
2013-03-29 08:12:00,46.0,39.0,-100.00,East,99,0.0,0.0,75,0.00,,,0.00,24.000000,,2013-03-29 18:12:00,
2013-03-29 08:22:00,46.0,39.0,-100.00,East,99,0.0,0.0,75,0.00,,,0.00,24.000000,,2013-03-29 18:22:00,
2013-03-29 08:32:00,46.0,39.0,-100.00,East,99,0.0,0.0,75,0.00,,,0.00,24.000000,,2013-03-29 18:32:00,
2013-03-29 08:42:00,46.0,39.0,-100.00,East,99,0.0,0.0,75,0.00,,,0.00,24.000000,,2013-03-29 18:42:00,
2013-03-29 09:12:00,54.0,42.0,-100.00,NNW,327,3.0,6.0,64,0.00,,,0.00,402.000000,,2013-03-29 19:12:00,
2013-03-29 09:22:00,54.0,42.0,-100.00,NNW,327,3.0,6.0,64,0.00,,,0.00,402.000000,,2013-03-29 19:22:00,
2013-03-29 09:32:00,54.0,42.0,-100.00,NNW,327,3.0,6.0,64,0.00,,,0.00,402.000000,,2013-03-29 19:32:00,
2013-03-29 09:42:00,54.0,42.0,-100.00,NNW,327,3.0,6.0,64,0.00,,,0.00,402.000000,,2013-03-29 19:42:00,
2013-03-29 10:12:00,55.0,49.0,-100.00,WNW,301,6.0,8.0,81,0.00,,,0.00,647.000000,,2013-03-29 20:12:00,
2013-03-29 10:22:00,55.0,49.0,-100.00,WNW,301,6.0,8.0,81,0.00,,,0.00,647.000000,,2013-03-29 20:22:00,
2013-03-29 10:32:00,55.0,49.0,-100.00,WNW,301,6.0,8.0,81,0.00,,,0.00,647.000000,,2013-03-29 20:32:00,
2013-03-29 10:42:00,55.0,49.0,-100.00,WNW,301,6.0,8.0,81,0.00,,,0.00,647.000000,,2013-03-29 20:42:00,
2013-03-29 11:12:00,54.0,51.0,-100.00,NW,310,5.0,10.0,91,0.00,,,0.00,544.000000,,2013-03-29 21:12:00,
2013-03-29 11:22:00,54.0,51.0,-100.00,NW,310,5.0,10.0,91,0.00,,,0.00,544.000000,,2013-03-29 21:22:00,
2013-03-29 11:32:00,54.0,51.0,-100.00,NW,310,5.0,10.0,91,0.00,,,0.00,544.000000,,2013-03-29 21:32:00,
2013-03-29 11:42:00,54.0,51.0,-100.00,NW,310,5.0,10.0,91,0.00,,,0.00,544.000000,,2013-03-29 21:42:00,
2013-03-29 12:12:00,55.0,51.0,-100.00,WNW,299,5.0,9.0,87,0.00,,,0.00,440.000000,,2013-03-29 22:12:00,
2013-03-29 12:22:00,55.0,51.0,-100.00,WNW,299,5.0,9.0,87,0.00,,,0.00,440.000000,,2013-03-29 22:22:00,
2013-03-29 12:33:00,55.0,51.0,-100.00,WNW,299,5.0,9.0,87,0.00,,,0.00,440.000000,,2013-03-29 22:33:00,
2013-03-29 12:42:00,55.0,51.0,-100.00,WNW,299,5.0,9.0,87,0.00,,,0.00,440.000000,,2013-03-29 22:42:00,
2013-03-29 13:12:00,53.0,52.0,-100.00,NNW,346,4.0,9.0,97,0.00,,,0.00,329.000000,,2013-03-29 23:12:00,
2013-03-29 13:22:00,53.0,52.0,-100.00,NNW,346,4.0,9.0,97,0.00,,,0.00,329.000000,,2013-03-29 23:22:00,
2013-03-29 13:32:00,53.0,52.0,-100.00,NNW,346,4.0,9.0,97,0.00,,,0.00,329.000000,,2013-03-29 23:32:00,
2013-03-29 13:42:00,53.0,52.0,-100.00,NNW,346,4.0,9.0,97,0.00,,,0.00,329.000000,,2013-03-29 23:42:00,
2013-03-29 14:12:00,54.0,53.0,-100.00,NW,306,5.0,9.0,96,0.01,,,0.01,293.000000,,2013-03-30 00:12:00,
2013-03-29 14:22:00,54.0,53.0,-100.00,NW,306,5.0,9.0,96,0.01,,,0.01,293.000000,,2013-03-30 00:22:00,
2013-03-29 14:32:00,54.0,53.0,-100.00,NW,306,5.0,9.0,96,0.01,,,0.01,293.000000,,2013-03-30 00:32:00,
2013-03-29 14:42:00,54.0,53.0,-100.00,NW,306,5.0,9.0,96,0.01,,,0.01,293.000000,,2013-03-30 00:42:00,
2013-03-29 15:12:00,53.0,52.0,-100.00,WNW,290,7.0,13.0,98,0.04,,,0.05,282.000000,,2013-03-30 01:12:00,
2013-03-29 15:22:00,53.0,52.0,-100.00,WNW,290,7.0,13.0,98,0.04,,,0.05,282.000000,,2013-03-30 01:22:00,
2013-03-29 15:32:00,53.0,52.0,-100.00,WNW,290,7.0,13.0,98,0.04,,,0.05,282.000000,,2013-03-30 01:32:00,
2013-03-29 15:42:00,53.0,52.0,-100.00,WNW,290,7.0,13.0,98,0.04,,,0.05,282.000000,,2013-03-30 01:42:00,
2013-03-29 16:12:00,53.0,53.0,-100.00,WNW,298,7.0,14.0,99,0.08,,,0.13,270.000000,,2013-03-30 02:12:00,
2013-03-29 16:22:00,53.0,53.0,-100.00,WNW,298,7.0,14.0,99,0.08,,,0.13,270.000000,,2013-03-30 02:22:00,
2013-03-29 16:32:00,53.0,53.0,-100.00,WNW,298,7.0,14.0,99,0.08,,,0.13,270.000000,,2013-03-30 02:32:00,
2013-03-29 16:42:00,53.0,53.0,-100.00,WNW,298,7.0,14.0,99,0.08,,,0.13,270.000000,,2013-03-30 02:42:00,
2013-03-29 17:12:00,52.0,52.0,-100.00,NW,321,4.0,8.0,99,0.28,,,0.41,137.000000,,2013-03-30 03:12:00,
2013-03-29 17:22:00,52.0,52.0,-100.00,NW,321,4.0,8.0,99,0.28,,,0.41,137.000000,,2013-03-30 03:22:00,
2013-03-29 17:33:00,52.0,52.0,-100.00,NW,321,4.0,8.0,99,0.28,,,0.41,137.000000,,2013-03-30 03:33:00,
2013-03-29 17:43:00,52.0,52.0,-100.00,NW,321,4.0,8.0,99,0.28,,,0.41,137.000000,,2013-03-30 03:43:00,
2013-03-29 18:12:00,51.0,51.0,-100.00,North,352,2.0,8.0,99,0.23,,,-99.99,87.000000,,2013-03-30 04:12:00,
2013-03-29 18:23:00,51.0,51.0,-100.00,North,352,2.0,8.0,99,0.23,,,-99.99,87.000000,,2013-03-30 04:23:00,
2013-03-29 18:32:00,51.0,51.0,-100.00,North,352,2.0,8.0,99,0.23,,,-99.99,87.000000,,2013-03-30 04:32:00,
2013-03-29 18:42:00,51.0,51.0,-100.00,North,352,2.0,8.0,99,0.23,,,-99.99,87.000000,,2013-03-30 04:42:00,
2013-03-29 19:12:00,50.0,50.0,-100.00,NNE,17,2.0,7.0,100,0.04,,,0.68,28.000000,,2013-03-30 05:12:00,
2013-03-29 19:22:00,50.0,50.0,-100.00,NNE,17,2.0,7.0,100,0.04,,,0.68,28.000000,,2013-03-30 05:22:00,
2013-03-29 19:32:00,50.0,50.0,-100.00,NNE,17,2.0,7.0,100,0.04,,,0.68,28.000000,,2013-03-30 05:32:00,
2013-03-29 19:42:00,50.0,50.0,-100.00,NNE,17,2.0,7.0,100,0.04,,,0.68,28.000000,,2013-03-30 05:42:00,
2013-03-29 20:11:00,48.0,48.0,-100.00,East,98,2.0,6.0,100,0.00,,,0.68,0.000000,,2013-03-30 06:11:00,
2013-03-29 20:22:00,48.0,48.0,-100.00,East,98,2.0,6.0,100,0.00,,,0.68,0.000000,,2013-03-30 06:22:00,
2013-03-29 20:32:00,48.0,48.0,-100.00,East,98,2.0,6.0,100,0.00,,,0.68,0.000000,,2013-03-30 06:32:00,
2013-03-29 20:42:00,48.0,48.0,-100.00,East,98,2.0,6.0,100,0.00,,,0.68,0.000000,,2013-03-30 06:42:00,
2013-03-29 21:12:00,46.0,46.0,-100.00,ESE,111,5.0,6.0,99,0.00,,,0.68,0.000000,,2013-03-30 07:12:00,
2013-03-29 21:22:00,46.0,46.0,-100.00,ESE,111,5.0,6.0,99,0.00,,,0.68,0.000000,,2013-03-30 07:22:00,
2013-03-29 21:32:00,46.0,46.0,-100.00,ESE,111,5.0,6.0,99,0.00,,,0.68,0.000000,,2013-03-30 07:32:00,
2013-03-29 21:42:00,46.0,46.0,-100.00,ESE,111,5.0,6.0,99,0.00,,,0.68,0.000000,,2013-03-30 07:42:00,
2013-03-29 22:12:00,47.0,46.0,-100.00,East,101,5.0,7.0,98,0.01,,,0.69,0.000000,,2013-03-30 08:12:00,
2013-03-29 22:21:00,47.0,46.0,-100.00,East,101,5.0,7.0,98,0.01,,,0.69,0.000000,,2013-03-30 08:21:00,
2013-03-29 22:32:00,47.0,46.0,-100.00,East,101,5.0,7.0,98,0.01,,,0.69,0.000000,,2013-03-30 08:32:00,
2013-03-29 22:42:00,47.0,46.0,-100.00,East,101,5.0,7.0,98,0.01,,,0.69,0.000000,,2013-03-30 08:42:00,
2013-03-29 23:12:00,47.0,46.0,-100.00,East,82,4.0,6.0,95,0.00,,,-99.99,0.000000,,2013-03-30 09:12:00,
2013-03-29 23:22:00,47.0,46.0,-100.00,East,82,4.0,6.0,95,0.00,,,-99.99,0.000000,,2013-03-30 09:22:00,
2013-03-29 23:33:00,47.0,46.0,-100.00,East,82,4.0,6.0,95,0.00,,,-99.99,0.000000,,2013-03-30 09:33:00,
2013-03-29 23:42:00,47.0,46.0,-100.00,East,82,4.0,6.0,95,0.00,,,-99.99,0.000000,,2013-03-30 09:42:00,